Aviation Digital Data Service (ADDS)

Output produced by METARs form (2057 UTC 29 May 2017)
found at http://www.aviationweather.gov/adds/metars/
 
TISX 291732Z 2918/3018 11010G20KT P6SM SCT025 
     FM292300 07008KT P6SM VCSH SCT025 
     FM301400 10010KT P6SM VCSH SCT025 SCT050
       
TIST 291732Z 2918/3018 12010G20KT P6SM SCT025 
     FM292300 09008KT P6SM VCSH SCT025 
     FM301400 11010KT P6SM VCSH SCT025 SCT050